Nashville, TN

12:12 PM CDT on September 02, 2014 (GMT -0500)
Nashville International | Change Station
CLOSE
Current Station
Airport
Location: Nashville,
Elevation: 597 ft
Nearby Weather Stations

Elev 597 ft 36.12 °N, 86.69 °W | Updated 19 minutes ago

Mostly Cloudy
Mostly Cloudy
89 °F
Feels Like 96 °F
N
9
Wind Variable Wind from SW
Gusts 17 mph

Today
High -- | Low -- °F
--% Chance of Precip.
Yesterday
High -- | Low -- °F
Precip. -- in
6:19 AM 7:12 PM
First Quarter, 53% visible
Pressure 30.01 in
Visibility 10.0 miles
Clouds Scattered Clouds 3400 ft
Scattered Clouds 5000 ft
Mostly Cloudy 20000 ft
Mostly Cloudy 25000 ft
Heat Index 96 °F
Dew Point 72 °F
Humidity 57%
Rainfall 0.00 in
Snow Depth Not available.
UV 5 out of 12
Pollen 10.50 out of 12
Ozone Good
PM2.5 Moderate
Flu Activity Not available.
METAR KBNA 021653Z 22008G15KT 190V260 10SM SCT034 SCT050 BKN200 BKN250 32/22 A3003 RMK AO2 SLP160 T03170222

More Conditions Fewer Conditions

Pressure 30.01 in
Visibility 10.0 miles
Clouds Scattered Clouds 3400 ft
Scattered Clouds 5000 ft
Mostly Cloudy 20000 ft
Mostly Cloudy 25000 ft
Heat Index 96 °F
Dew Point 72 °F
Humidity 57%
Rainfall 0.00 in
Snow Depth Not available.
UV 5 out of 12
Pollen 10.50 out of 12
Ozone Good
PM2.5 Moderate
Flu Activity Not available.
METAR KBNA 021653Z 22008G15KT 190V260 10SM SCT034 SCT050 BKN200 BKN250 32/22 A3003 RMK AO2 SLP160 T03170222

More Conditions Fewer Conditions

10-Day Weather Forecast

Almanac

Astronomy

Sep. 02, 2014 Rise Set
Actual Time 6:19 AM CDT 7:12 PM CDT
Civil Twilight 5:52 AM CDT 7:39 PM CDT
Nautical Twilight 5:21 AM CDT 8:10 PM CDT
Astronomical Twilight 4:49 AM CDT 8:41 PM CDT
Moon 1:50 PM CDT No Moon Set
Length of Visible Light 13h 46m
Length of Day
12h 53m
Tomorrow will be 2m 12s shorter.
First Quarter, 53% of the Moon is Illuminated
Today
First Quarter
Sep 8
Full
Sep 15
Last Quarter
Sep 24
New
Oct 1
First Quarter

Today's Extremes

State Highs State Lows

Community

WunderPhotos

Upload Photos

1,749,719 photos uploaded!

Nearby

Air Quality

  Air Quality AQ Index Pollutant
Yesterday Moderate
PM2.5
Yesterday Good
OZONE
Current Moderate
PM2.5
Current Good
OZONE
Tuesday Moderate
PM2.5
Tuesday Good
OZONE

Snow Depth

Station Depth Elevation
No new snow has been reported.

Earthquake Activity

City Distance Mag. Time & Date
No recent earthquake activity has been reported nearby.
Minimum magnitude displayed is 2.5.

Coastal Water Temperatures

Place Temperature
No Stations Reporting

Nearby Weather Stations